Currently 55°F in Murrieta, California, USA
55°F
65°F / 41°F
calm
0.00"
Wednesday, December 12, 2018 5:46 PM PST

Murrieta, California Weather Summary
Last 36 Hours

Temperature Winds Hourly Humidity Dewpoint
Time Report Norm Report Norm Max Gusts Precip. Rpt. Norm Rpt. Norm Pressure
1Wed 05:46 PM  55.0°F  56°F  calm  3 mph  none  0.00"  88%  65%  51°F  44°F  30.16"
Wed 05:00 PM  58.3°F  58°F  4 mph SW  3 mph  10 mph  0.00"  80%  61%  52°F  45°F  30.14"
Wed 04:00 PM  60.6°F  61°F  4 mph W  4 mph  10 mph  0.00"  77%  54%  53°F  44°F  30.14"
Wed 03:00 PM  64.1°F  65°F  calm  4 mph  none  0.00"  65%  48%  52°F  44°F  30.12"
2Wed 02:42 PM  65.0°F  66°F  calm  4 mph  none  ----  64%  47%  52°F  44°F  30.13"
Wed 02:00 PM  64.6°F  66°F  calm  4 mph  none  0.00"  61%  46%  50°F  44°F  30.12"
Wed 01:00 PM  63.5°F  66°F  calm  4 mph  13 mph  0.00"  64%  47%  51°F  44°F  30.11"
Wed 12:00 PM  63.7°F  65°F  7 mph SW  4 mph  9 mph  0.00"  66%  50%  52°F  45°F  30.12"
Wed 11:00 AM  59.7°F  62°F  calm  3 mph  6 mph  0.00"  70%  55%  49°F  45°F  30.14"
Wed 10:00 AM  54.3°F  57°F  2 mph S  2 mph  7 mph  0.00"  79%  66%  48°F  45°F  30.14"
Wed 09:00 AM  49.0°F  52°F  2 mph S  2 mph  5 mph  0.00"  94%  76%  47°F  44°F  30.15"
Wed 08:00 AM  43.0°F  47°F  calm  1 mph  2 mph  0.00"  97%  83%  42°F  42°F  30.15"
Wed 07:00 AM  41.6°F  44°F  calm  1 mph  5 mph  0.00"  97%  84%  41°F  39°F  30.14"
3Wed 06:01 AM  40.8°F  44°F  calm  1 mph  3 mph  ----  97%  83%  40°F  40°F  30.11"
Wed 06:00 AM  40.8°F  45°F  calm  1 mph  3 mph  0.00"  97%  83%  40°F  40°F  30.11"
Wed 05:00 AM  41.8°F  45°F  calm  1 mph  5 mph  0.00"  97%  83%  41°F  40°F  30.10"
Wed 04:00 AM  42.2°F  46°F  calm  1 mph  none  0.00"  97%  81%  41°F  40°F  30.11"
Wed 03:00 AM  42.3°F  46°F  calm  1 mph  5 mph  0.00"  96%  80%  41°F  40°F  30.12"
Wed 02:00 AM  44.3°F  47°F  calm  1 mph  6 mph  0.00"  96%  80%  43°F  41°F  30.13"
Wed 01:00 AM  45.3°F  47°F  calm  1 mph  3 mph  0.00"  96%  79%  44°F  41°F  30.12"
Wed 12:00 AM  45.6°F  48°F  calm  1 mph  7 mph  0.00"  95%  78%  44°F  41°F  30.11"
Tue 11:00 PM  47.3°F  49°F  calm  1 mph  none  0.00"  94%  76%  46°F  42°F  30.12"
Tue 10:00 PM  48.5°F  50°F  calm  1 mph  3 mph  0.00"  91%  75%  46°F  42°F  30.11"
Tue 09:00 PM  51.1°F  51°F  calm  2 mph  7 mph  0.00"  86%  73%  47°F  43°F  30.10"
Tue 08:00 PM  52.7°F  52°F  3 mph SW  2 mph  8 mph  0.00"  84%  71%  48°F  43°F  30.08"
Tue 07:00 PM  54.8°F  54°F  calm  2 mph  9 mph  0.00"  81%  68%  49°F  44°F  30.07"
Tue 06:00 PM  58.0°F  56°F  4 mph NW  3 mph  13 mph  0.00"  77%  65%  51°F  44°F  30.05"
Tue 05:00 PM  61.5°F  59°F  4 mph W  3 mph  10 mph  0.00"  68%  61%  51°F  45°F  30.02"
Tue 04:00 PM  64.4°F  62°F  6 mph NW  4 mph  9 mph  0.00"  46%  54%  43°F  44°F  30.00"
Tue 03:00 PM  69.4°F  66°F  calm  4 mph  7 mph  0.00"  37%  47%  41°F  44°F  29.99"
Tue 02:00 PM  69.8°F  66°F  calm  4 mph  8 mph  0.00"  37%  45%  41°F  44°F  30.00"
Tue 01:00 PM  68.8°F  66°F  1 mph SW  4 mph  9 mph  0.00"  36%  47%  39°F  44°F  30.02"
Tue 12:00 PM  66.3°F  65°F  calm  3 mph  11 mph  0.00"  44%  50%  43°F  45°F  30.04"
Tue 11:00 AM  61.1°F  62°F  5 mph E  3 mph  10 mph  0.00"  61%  55%  47°F  45°F  30.07"
Tue 10:00 AM  56.4°F  57°F  calm  2 mph  none  0.00"  75%  65%  48°F  45°F  30.09"
Tue 09:00 AM  51.3°F  52°F  calm  1 mph  4 mph  0.00"  88%  76%  48°F  44°F  30.08"
Tue 08:00 AM  47.8°F  47°F  3 mph SW  1 mph  5 mph  0.00"  90%  83%  45°F  41°F  30.07"
Tue 07:00 AM  45.8°F  44°F  calm  1 mph  2 mph  0.00"  95%  84%  44°F  39°F  30.06"
Tue 06:00 AM  46.3°F  44°F  1 mph W  1 mph  5 mph  0.00"  92%  84%  44°F  39°F  30.05"

  1. Current weather data. No green row appears if the current weather data is also the high or low for the current day.
  2. High temperature for the current day.
  3. Low temperature for the current day.

The Murrieta weather pages are a service of WeatherCurrents. Murrieta, California is located in the Temecula Valley, in southwestern Riverside County, at the junctions of the Interstate 15 and 215 highways.
Copyright ©Wed Dec 12 17:46:51 PST 2018  WeatherCurrents. All rights reserved. - Submit questions and comments - Privacy Policy

This page automatically refreshes every 10 minutes.